Time;durP1;ratioP1;P1;durP2;ratioP2;P2;SDS_P1;SDS_P2;PMS_P1;PMS_P2;Temp;Humidity;BMP_temperature;BMP_pressure;BME280_temperature;BME280_humidity;BME280_pressure;Samples;Min_cycle;Max_cycle;Signal;HPM_P1;HPM_P2
2021/08/26 00:07:01;;;;;;;;;;;13.50;95.40;;;;;;5033238;28;20307;-76
2021/08/26 00:09:28;;;;;;;;;;;13.50;96.30;;;;;;5034740;28;19915;-76
2021/08/26 00:11:56;;;;;;;;;;;13.40;95.90;;;;;;5032710;28;20386;-76
2021/08/26 00:14:24;;;;;;;;;;;13.50;95.70;;;;;;5032421;28;19913;-77
2021/08/26 00:16:51;;;;;;;;;;;13.50;95.70;;;;;;5034145;28;19971;-77
2021/08/26 00:19:20;;;;;;;;;;;13.50;96.10;;;;;;5037476;28;19955;-77
2021/08/26 00:21:46;;;;;;;;;;;13.60;95.90;;;;;;5036632;28;19909;-77
2021/08/26 00:24:14;;;;;;;;;;;13.60;96.10;;;;;;5037425;28;19940;-77
2021/08/26 00:26:40;;;;;;;;;;;13.60;96.10;;;;;;5037316;28;19917;-77
2021/08/26 00:29:07;;;;;;;;;;;13.60;96.40;;;;;;5037385;28;19999;-76
2021/08/26 00:31:34;;;;;;;;;;;13.60;96.20;;;;;;5036829;28;20360;-77
2021/08/26 00:34:00;;;;;;;;;;;13.70;96.20;;;;;;5036343;28;19910;-75
2021/08/26 00:36:27;;;;;;;;;;;13.80;95.70;;;;;;5036968;28;20008;-77
2021/08/26 00:38:54;;;;;;;;;;;13.80;96.20;;;;;;5036972;28;19967;-77
2021/08/26 00:41:20;;;;;;;;;;;13.80;96.30;;;;;;5037758;28;19931;-78
2021/08/26 00:43:47;;;;;;;;;;;13.80;95.90;;;;;;5038059;28;19944;-78
2021/08/26 00:46:14;;;;;;;;;;;13.80;96.60;;;;;;5035670;28;20420;-77
2021/08/26 00:48:42;;;;;;;;;;;13.80;96.30;;;;;;5035703;28;19921;-76
2021/08/26 00:51:08;;;;;;;;;;;14.00;96.00;;;;;;5039662;28;19909;-78
2021/08/26 00:53:35;;;;;;;;;;;14.10;95.90;;;;;;5036946;28;19909;-77
2021/08/26 00:56:02;;;;;;;;;;;14.00;95.90;;;;;;5036667;28;19915;-76
2021/08/26 00:58:31;;;;;;;;;;;14.00;96.00;;;;;;5036747;28;20001;-77
2021/08/26 01:01:01;;;;;;;;;;;14.00;96.10;;;;;;5035839;28;19909;-76
2021/08/26 01:03:57;;;;;;;;;;;14.20;95.70;;;;;;5036483;28;19956;-76
2021/08/26 01:06:26;;;;;;;;;;;14.20;95.60;;;;;;5035419;28;19921;-76
2021/08/26 01:09:00;;;;;;;;;;;14.30;96.10;;;;;;5035853;28;19917;-75
2021/08/26 01:11:29;;;;;;;;;;;14.30;95.50;;;;;;5037604;28;20334;-77
2021/08/26 01:13:56;;;;;;;;;;;14.70;95.40;;;;;;5035803;28;19909;-76
2021/08/26 01:16:23;;;;;;;;;;;15.10;94.50;;;;;;5035983;28;19913;-77
2021/08/26 01:18:50;;;;;;;;;;;15.50;94.10;;;;;;5035701;28;19909;-76
2021/08/26 01:21:18;;;;;;;;;;;15.50;93.70;;;;;;5035928;28;19919;-75
2021/08/26 01:23:49;;;;;;;;;;;15.50;93.90;;;;;;5035610;28;19964;-74
2021/08/26 01:26:17;;;;;;;;;;;16.00;92.90;;;;;;5035381;28;19917;-75
2021/08/26 01:28:45;;;;;;;;;;;16.10;92.20;;;;;;5036044;28;19916;-75
2021/08/26 01:31:12;;;;;;;;;;;16.10;92.70;;;;;;5034815;28;20356;-75
2021/08/26 01:33:39;;;;;;;;;;;15.80;92.90;;;;;;5035911;28;19909;-76
2021/08/26 01:36:06;;;;;;;;;;;15.70;93.10;;;;;;5036258;28;20374;-76
2021/08/26 01:38:34;;;;;;;;;;;15.40;93.30;;;;;;5036634;28;19913;-76
2021/08/26 01:41:01;;;;;;;;;;;15.20;93.90;;;;;;5037208;28;19937;-76
2021/08/26 01:43:28;;;;;;;;;;;15.20;93.90;;;;;;5035751;28;19909;-75
2021/08/26 01:45:57;;;;;;;;;;;15.10;94.00;;;;;;5034399;28;20381;-76
2021/08/26 01:48:23;;;;;;;;;;;15.20;94.00;;;;;;5034429;28;20303;-75
2021/08/26 01:50:50;;;;;;;;;;;15.30;94.10;;;;;;5034595;28;20001;-76
2021/08/26 01:53:17;;;;;;;;;;;15.30;94.30;;;;;;5034703;28;19948;-75
2021/08/26 01:55:45;;;;;;;;;;;15.40;94.00;;;;;;5034477;28;19909;-75
2021/08/26 01:58:13;;;;;;;;;;;15.30;93.80;;;;;;5050051;28;19929;-75
2021/08/26 02:00:40;;;;;;;;;;;15.30;94.00;;;;;;5034639;28;19927;-75
2021/08/26 02:03:06;;;;;;;;;;;15.20;94.10;;;;;;5034961;28;19996;-74
2021/08/26 02:05:33;;;;;;;;;;;15.00;93.90;;;;;;5034936;28;20346;-76
2021/08/26 02:08:00;;;;;;;;;;;15.10;94.20;;;;;;5034325;28;19917;-76
2021/08/26 02:10:26;;;;;;;;;;;15.00;94.70;;;;;;5034229;28;19910;-75
2021/08/26 02:12:53;;;;;;;;;;;15.10;94.50;;;;;;5034102;28;19956;-76
2021/08/26 02:15:20;;;;;;;;;;;15.30;94.40;;;;;;5034456;28;20268;-75
2021/08/26 02:17:46;;;;;;;;;;;15.40;94.10;;;;;;5034925;28;19917;-77
2021/08/26 02:20:14;;;;;;;;;;;15.40;94.10;;;;;;5034616;28;19967;-75
2021/08/26 02:22:41;;;;;;;;;;;15.40;94.70;;;;;;5034663;28;19916;-74
2021/08/26 02:25:08;;;;;;;;;;;15.50;94.40;;;;;;5034727;28;19913;-75
2021/08/26 02:27:35;;;;;;;;;;;15.50;94.20;;;;;;5033932;28;20419;-74
2021/08/26 02:30:02;;;;;;;;;;;15.60;94.70;;;;;;5034194;28;20359;-75
2021/08/26 02:32:29;;;;;;;;;;;15.60;93.80;;;;;;5033901;28;20054;-75
2021/08/26 02:34:59;;;;;;;;;;;15.60;93.80;;;;;;5033875;28;20421;-74
2021/08/26 02:37:25;;;;;;;;;;;15.60;93.30;;;;;;5033671;28;20288;-75
2021/08/26 02:39:52;;;;;;;;;;;15.60;93.80;;;;;;5033874;28;19909;-76
2021/08/26 02:42:19;;;;;;;;;;;15.60;94.00;;;;;;5033810;28;19913;-75
2021/08/26 02:44:45;;;;;;;;;;;15.60;93.60;;;;;;5035045;28;19909;-76
2021/08/26 02:47:12;;;;;;;;;;;15.60;93.50;;;;;;5033142;28;20543;-75
2021/08/26 02:49:39;;;;;;;;;;;15.60;93.40;;;;;;5033152;28;19948;-76
2021/08/26 02:52:06;;;;;;;;;;;15.60;93.40;;;;;;5033367;28;20264;-76
2021/08/26 02:54:32;;;;;;;;;;;15.70;94.00;;;;;;5033885;28;20337;-76
2021/08/26 02:56:59;;;;;;;;;;;15.60;93.80;;;;;;5033073;28;19955;-76
2021/08/26 02:59:26;;;;;;;;;;;15.70;94.20;;;;;;5048908;28;20363;-77
2021/08/26 03:01:52;;;;;;;;;;;15.80;93.70;;;;;;5034193;28;19920;-76
2021/08/26 03:04:22;;;;;;;;;;;15.80;94.00;;;;;;5033761;28;20375;-77
2021/08/26 03:06:49;;;;;;;;;;;15.80;94.60;;;;;;5033271;28;19917;-77
2021/08/26 03:09:15;;;;;;;;;;;15.80;94.20;;;;;;5065229;28;19909;-77
2021/08/26 03:11:42;;;;;;;;;;;15.80;93.60;;;;;;5033166;28;20004;-77
2021/08/26 03:14:09;;;;;;;;;;;15.80;93.50;;;;;;5034182;28;20427;-77
2021/08/26 03:16:35;;;;;;;;;;;15.80;94.30;;;;;;5033869;28;19963;-77
2021/08/26 03:19:03;;;;;;;;;;;15.80;93.80;;;;;;5034140;28;19913;-76
2021/08/26 03:21:30;;;;;;;;;;;15.80;93.10;;;;;;5033273;28;20414;-75
2021/08/26 03:23:57;;;;;;;;;;;15.70;93.70;;;;;;5065653;28;20423;-76
2021/08/26 03:26:23;;;;;;;;;;;15.60;93.60;;;;;;5033486;28;19956;-76
2021/08/26 03:28:50;;;;;;;;;;;15.60;94.60;;;;;;5065733;28;19913;-76
2021/08/26 03:31:17;;;;;;;;;;;15.60;93.70;;;;;;5033669;28;19916;-76
2021/08/26 03:33:44;;;;;;;;;;;15.60;94.20;;;;;;5033836;28;20352;-76
2021/08/26 03:36:10;;;;;;;;;;;15.70;94.00;;;;;;5033657;28;20313;-76
2021/08/26 03:38:37;;;;;;;;;;;15.70;93.80;;;;;;5034084;28;19909;-74
2021/08/26 03:41:04;;;;;;;;;;;15.60;94.50;;;;;;5032949;28;19909;-75
2021/08/26 03:43:30;;;;;;;;;;;15.70;94.10;;;;;;5032717;28;20003;-76
2021/08/26 03:45:57;;;;;;;;;;;15.50;93.70;;;;;;5033288;28;19940;-75
2021/08/26 03:48:24;;;;;;;;;;;15.30;94.60;;;;;;5032993;28;19928;-77
2021/08/26 03:50:51;;;;;;;;;;;15.30;95.20;;;;;;5034623;28;20036;-76
2021/08/26 03:53:17;;;;;;;;;;;15.20;95.60;;;;;;5037323;28;19956;-77
2021/08/26 03:55:44;;;;;;;;;;;15.30;95.50;;;;;;5037280;28;19913;-76
2021/08/26 03:58:11;;;;;;;;;;;15.30;95.00;;;;;;5038027;28;19909;-75
2021/08/26 04:00:37;;;;;;;;;;;15.30;95.20;;;;;;5036973;28;19987;-76
2021/08/26 04:03:04;;;;;;;;;;;15.50;95.00;;;;;;5036527;28;19909;-75
2021/08/26 04:05:31;;;;;;;;;;;15.60;94.60;;;;;;5068031;28;20289;-76
2021/08/26 04:07:57;;;;;;;;;;;15.70;94.40;;;;;;5036793;28;20387;-76
2021/08/26 04:10:24;;;;;;;;;;;15.60;94.60;;;;;;5036395;28;19955;-76
2021/08/26 04:12:51;;;;;;;;;;;15.60;94.50;;;;;;5037022;28;19909;-75
2021/08/26 04:15:17;;;;;;;;;;;15.60;94.70;;;;;;5037084;28;19967;-76
2021/08/26 04:17:44;;;;;;;;;;;15.60;94.80;;;;;;5036754;28;19956;-76
2021/08/26 04:20:11;;;;;;;;;;;15.60;94.30;;;;;;5036297;28;19949;-75
2021/08/26 04:22:37;;;;;;;;;;;15.50;94.40;;;;;;5037711;28;20003;-77
2021/08/26 04:25:05;;;;;;;;;;;15.70;94.80;;;;;;5069230;28;19913;-78
2021/08/26 04:27:32;;;;;;;;;;;15.60;94.80;;;;;;5039432;28;19914;-77
2021/08/26 04:29:58;;;;;;;;;;;15.50;94.90;;;;;;5070665;28;19909;-75
2021/08/26 04:32:25;;;;;;;;;;;15.70;95.70;;;;;;5038104;28;19916;-75
2021/08/26 04:34:52;;;;;;;;;;;15.80;95.40;;;;;;5036604;28;19909;-75
2021/08/26 04:37:18;;;;;;;;;;;15.70;95.50;;;;;;5037187;28;19909;-77
2021/08/26 04:39:45;;;;;;;;;;;15.80;95.80;;;;;;5037031;28;20336;-76
2021/08/26 04:42:12;;;;;;;;;;;15.80;95.80;;;;;;5036228;28;19932;-76
2021/08/26 04:44:38;;;;;;;;;;;15.80;95.70;;;;;;5036045;28;19909;-74
2021/08/26 04:47:05;;;;;;;;;;;15.70;96.10;;;;;;5036498;28;19917;-75
2021/08/26 04:49:32;;;;;;;;;;;15.70;96.50;;;;;;5036441;28;19993;-75
2021/08/26 04:51:59;;;;;;;;;;;15.80;96.90;;;;;;5035913;28;20004;-75
2021/08/26 04:54:26;;;;;;;;;;;15.80;97.20;;;;;;5036850;28;19909;-75
2021/08/26 04:56:52;;;;;;;;;;;15.90;96.90;;;;;;5036764;28;19913;-75
2021/08/26 04:59:19;;;;;;;;;;;15.90;97.10;;;;;;5037975;28;19916;-76
2021/08/26 05:01:46;;;;;;;;;;;15.90;97.20;;;;;;5035769;28;19909;-74
2021/08/26 05:04:12;;;;;;;;;;;16.00;96.80;;;;;;5036148;28;20430;-75
2021/08/26 05:06:39;;;;;;;;;;;15.90;97.00;;;;;;5035137;28;19917;-75
2021/08/26 05:09:06;;;;;;;;;;;15.90;96.90;;;;;;5036746;28;19917;-75
2021/08/26 05:11:32;;;;;;;;;;;16.00;97.40;;;;;;5035653;28;19913;-76
2021/08/26 05:13:59;;;;;;;;;;;15.90;96.90;;;;;;5067366;28;20352;-76
2021/08/26 05:16:26;;;;;;;;;;;15.90;96.60;;;;;;5035004;28;19909;-76
2021/08/26 05:18:52;;;;;;;;;;;15.80;97.20;;;;;;5034908;28;19933;-76
2021/08/26 05:21:19;;;;;;;;;;;15.80;97.10;;;;;;5034914;28;19909;-75
2021/08/26 05:23:46;;;;;;;;;;;15.80;97.20;;;;;;5034944;28;19909;-74
2021/08/26 05:26:13;;;;;;;;;;;15.70;97.20;;;;;;5034534;28;19968;-74
2021/08/26 05:28:40;;;;;;;;;;;15.80;97.30;;;;;;5034743;28;19916;-75
2021/08/26 05:31:41;;;;;;;;;;;15.90;97.20;;;;;;5035058;28;20353;-75
2021/08/26 05:34:08;;;;;;;;;;;15.90;96.90;;;;;;5032964;28;19913;-74
2021/08/26 05:36:34;;;;;;;;;;;15.90;97.20;;;;;;5034980;28;19909;-77
2021/08/26 05:39:01;;;;;;;;;;;15.80;96.80;;;;;;5035285;28;19913;-75
2021/08/26 05:41:28;;;;;;;;;;;15.70;96.90;;;;;;5035163;28;20554;-76
2021/08/26 05:43:54;;;;;;;;;;;15.70;97.40;;;;;;5034467;28;19972;-76
2021/08/26 05:46:21;;;;;;;;;;;15.70;97.30;;;;;;5034403;28;19921;-76
2021/08/26 05:48:48;;;;;;;;;;;15.70;97.00;;;;;;5034092;28;19963;-76
2021/08/26 05:51:14;;;;;;;;;;;15.70;96.80;;;;;;5034696;28;19917;-76
2021/08/26 05:53:41;;;;;;;;;;;15.80;96.60;;;;;;5034210;28;20284;-75
2021/08/26 05:56:08;;;;;;;;;;;15.90;96.50;;;;;;5034217;28;19909;-75
2021/08/26 05:58:34;;;;;;;;;;;15.90;96.40;;;;;;5034338;28;19913;-75
2021/08/26 06:01:01;;;;;;;;;;;16.00;96.20;;;;;;5034286;28;19909;-76
2021/08/26 06:03:28;;;;;;;;;;;16.00;96.30;;;;;;5034084;28;20364;-76
2021/08/26 06:05:54;;;;;;;;;;;16.00;96.60;;;;;;5034068;28;19920;-76
2021/08/26 06:08:27;;;;;;;;;;;15.90;96.80;;;;;;5034962;28;19916;-76
2021/08/26 06:10:53;;;;;;;;;;;15.90;96.90;;;;;;5034556;28;19916;-76
2021/08/26 06:13:20;;;;;;;;;;;15.80;97.40;;;;;;5033536;28;19962;-76
2021/08/26 06:15:47;;;;;;;;;;;15.80;97.80;;;;;;5033523;28;20006;-77
2021/08/26 06:18:15;;;;;;;;;;;15.70;97.80;;;;;;5035487;28;19913;-76
2021/08/26 06:20:42;;;;;;;;;;;15.60;98.10;;;;;;5035181;28;19909;-75
2021/08/26 06:23:09;;;;;;;;;;;15.50;98.40;;;;;;5035700;28;20003;-74
2021/08/26 06:25:35;;;;;;;;;;;15.50;98.70;;;;;;5033994;28;19990;-75
2021/08/26 06:28:02;;;;;;;;;;;15.40;99.20;;;;;;5034436;28;19971;-74
2021/08/26 06:30:29;;;;;;;;;;;15.30;99.50;;;;;;5033972;28;19909;-76
2021/08/26 06:32:56;;;;;;;;;;;15.30;99.80;;;;;;5033842;28;19913;-75
2021/08/26 06:35:22;;;;;;;;;;;15.20;99.40;;;;;;5033554;28;19936;-76
2021/08/26 06:37:49;;;;;;;;;;;15.20;99.50;;;;;;5033490;28;19917;-75
2021/08/26 06:40:16;;;;;;;;;;;15.10;99.70;;;;;;5033561;28;19909;-76
2021/08/26 06:42:43;;;;;;;;;;;15.10;99.50;;;;;;5035441;28;20415;-76
2021/08/26 06:45:10;;;;;;;;;;;15.10;99.90;;;;;;5035181;28;19909;-76
2021/08/26 06:47:37;;;;;;;;;;;15.10;99.90;;;;;;5033422;28;19921;-76
2021/08/26 06:50:04;;;;;;;;;;;15.10;99.90;;;;;;5033257;28;20015;-77
2021/08/26 06:52:30;;;;;;;;;;;15.10;99.90;;;;;;5030711;28;19913;-77
2021/08/26 06:54:57;;;;;;;;;;;15.00;99.90;;;;;;5031964;28;20364;-76
2021/08/26 06:57:28;;;;;;;;;;;15.00;99.90;;;;;;5031907;28;19984;-76
2021/08/26 06:59:55;;;;;;;;;;;14.90;99.90;;;;;;5031749;28;19913;-77
2021/08/26 07:02:21;;;;;;;;;;;15.00;99.90;;;;;;5030895;28;20059;-77
2021/08/26 07:04:48;;;;;;;;;;;14.90;99.90;;;;;;5030581;28;19913;-76
2021/08/26 07:07:15;;;;;;;;;;;14.90;99.90;;;;;;5030901;28;20101;-76
2021/08/26 07:09:41;;;;;;;;;;;14.90;99.90;;;;;;5030724;28;19909;-76
2021/08/26 07:12:08;;;;;;;;;;;14.90;99.90;;;;;;5030937;28;20280;-76
2021/08/26 07:14:35;;;;;;;;;;;14.90;99.90;;;;;;5030778;28;19909;-76
2021/08/26 07:17:01;;;;;;;;;;;14.80;99.90;;;;;;5030213;28;19956;-76
2021/08/26 07:19:28;;;;;;;;;;;14.80;99.90;;;;;;5030844;28;19909;-77
2021/08/26 07:21:55;;;;;;;;;;;14.80;99.90;;;;;;5030436;28;19913;-76
2021/08/26 07:24:22;;;;;;;;;;;14.70;99.90;;;;;;5045842;28;20264;-77
2021/08/26 07:26:49;;;;;;;;;;;14.70;99.90;;;;;;5030275;28;19921;-76
2021/08/26 07:29:16;;;;;;;;;;;14.70;99.90;;;;;;5030482;28;19920;-76
2021/08/26 07:31:45;;;;;;;;;;;14.60;99.90;;;;;;5030020;28;19917;-77
2021/08/26 07:34:13;;;;;;;;;;;14.70;99.90;;;;;;5030306;28;19914;-76
2021/08/26 07:36:39;;;;;;;;;;;14.60;99.90;;;;;;5030434;28;19952;-76
2021/08/26 07:39:06;;;;;;;;;;;14.60;99.90;;;;;;5031092;28;19913;-76
2021/08/26 07:41:33;;;;;;;;;;;14.60;99.90;;;;;;5030709;28;19943;-76
2021/08/26 07:43:59;;;;;;;;;;;14.50;99.90;;;;;;5031241;28;19964;-76
2021/08/26 07:46:26;;;;;;;;;;;14.50;99.90;;;;;;5030655;28;19917;-75
2021/08/26 07:48:54;;;;;;;;;;;14.50;99.90;;;;;;5031415;28;19931;-76
2021/08/26 07:51:25;;;;;;;;;;;14.50;99.90;;;;;;5031177;28;20449;-76
2021/08/26 07:53:51;;;;;;;;;;;14.40;99.90;;;;;;5062055;28;20008;-76
2021/08/26 07:56:18;;;;;;;;;;;14.40;99.90;;;;;;5029997;28;20352;-76
2021/08/26 07:58:45;;;;;;;;;;;14.40;99.90;;;;;;5030349;28;19913;-76
2021/08/26 08:01:11;;;;;;;;;;;14.40;99.90;;;;;;5030217;28;19909;-75
2021/08/26 08:03:38;;;;;;;;;;;14.40;99.90;;;;;;5029908;28;19932;-76
2021/08/26 08:06:06;;;;;;;;;;;14.40;99.90;;;;;;5030449;28;19987;-76
2021/08/26 08:08:32;;;;;;;;;;;14.40;99.90;;;;;;5030149;28;19909;-76
2021/08/26 08:10:59;;;;;;;;;;;14.40;99.90;;;;;;5029815;28;19975;-76
2021/08/26 08:13:26;;;;;;;;;;;14.40;99.90;;;;;;5029833;28;19944;-76
2021/08/26 08:15:52;;;;;;;;;;;14.40;99.90;;;;;;5030601;28;19917;-75
2021/08/26 08:18:19;;;;;;;;;;;14.40;99.90;;;;;;5031402;28;19913;-75
2021/08/26 08:20:46;;;;;;;;;;;14.30;99.90;;;;;;5032462;28;19909;-75
2021/08/26 08:23:13;;;;;;;;;;;14.30;99.90;;;;;;5030353;28;19994;-76
2021/08/26 08:25:40;;;;;;;;;;;14.30;99.90;;;;;;5030241;28;19921;-75
2021/08/26 08:28:13;;;;;;;;;;;14.20;99.90;;;;;;5030062;28;19914;-76
2021/08/26 08:30:40;;;;;;;;;;;14.20;99.90;;;;;;5030024;28;19917;-76
2021/08/26 08:33:07;;;;;;;;;;;14.20;99.90;;;;;;5029945;28;19910;-76
2021/08/26 08:35:33;;;;;;;;;;;14.10;99.90;;;;;;5029572;28;19963;-76
2021/08/26 08:38:00;;;;;;;;;;;14.10;99.90;;;;;;5031621;28;20363;-76
2021/08/26 08:40:27;;;;;;;;;;;14.10;99.90;;;;;;5033597;28;20063;-76
2021/08/26 08:42:53;;;;;;;;;;;14.00;99.90;;;;;;5033480;28;19925;-75
2021/08/26 08:45:21;;;;;;;;;;;14.00;99.90;;;;;;5033570;28;20063;-76
2021/08/26 08:47:48;;;;;;;;;;;14.00;99.90;;;;;;5033093;28;20375;-76
2021/08/26 08:50:15;;;;;;;;;;;14.00;99.90;;;;;;5033670;28;19970;-76
2021/08/26 08:52:42;;;;;;;;;;;14.00;99.90;;;;;;5032329;28;19909;-76
2021/08/26 08:55:10;;;;;;;;;;;13.90;99.90;;;;;;5033839;28;19920;-75
2021/08/26 08:57:40;;;;;;;;;;;13.90;99.90;;;;;;5034362;28;19959;-76
2021/08/26 09:00:08;;;;;;;;;;;13.90;99.90;;;;;;5037755;28;19936;-76
2021/08/26 09:02:35;;;;;;;;;;;13.90;99.90;;;;;;5036182;28;19913;-76
2021/08/26 09:05:03;;;;;;;;;;;13.90;99.90;;;;;;5035967;28;20352;-76
2021/08/26 09:07:33;;;;;;;;;;;13.80;99.90;;;;;;5039124;28;19925;-76
2021/08/26 09:10:01;;;;;;;;;;;13.90;99.90;;;;;;5039839;28;19955;-76
2021/08/26 09:12:43;;;;;;;;;;;13.90;99.90;;;;;;5037940;28;19944;-75
2021/08/26 09:15:10;;;;;;;;;;;13.80;99.90;;;;;;5037837;28;20260;-76
2021/08/26 09:17:37;;;;;;;;;;;13.80;99.90;;;;;;5038211;28;19909;-75
2021/08/26 09:20:08;;;;;;;;;;;13.80;99.90;;;;;;5038460;28;19952;-76
2021/08/26 09:22:36;;;;;;;;;;;13.80;99.90;;;;;;5036932;28;19955;-74
2021/08/26 09:25:04;;;;;;;;;;;13.80;99.90;;;;;;5037873;28;20422;-75
2021/08/26 09:27:35;;;;;;;;;;;13.70;99.90;;;;;;5036483;28;19917;-76
2021/08/26 09:30:05;;;;;;;;;;;13.70;99.90;;;;;;5036579;28;19909;-75
2021/08/26 09:32:44;;;;;;;;;;;13.70;99.90;;;;;;5068758;28;19956;-76
2021/08/26 09:35:15;;;;;;;;;;;13.70;99.90;;;;;;5036726;28;20384;-75
2021/08/26 09:37:49;;;;;;;;;;;13.70;99.90;;;;;;5034471;28;19909;-75
2021/08/26 09:40:17;;;;;;;;;;;13.60;99.90;;;;;;5034465;28;19910;-75
2021/08/26 09:42:43;;;;;;;;;;;13.60;99.90;;;;;;5032550;28;19913;-76
2021/08/26 09:45:17;;;;;;;;;;;13.60;99.90;;;;;;5033877;28;19914;-76
2021/08/26 09:48:02;;;;;;;;;;;13.50;99.90;;;;;;5034337;28;19928;-75
2021/08/26 09:50:42;;;;;;;;;;;13.50;99.90;;;;;;5035561;28;19932;-76
2021/08/26 09:53:10;;;;;;;;;;;13.50;99.90;;;;;;5035337;28;19954;-75
2021/08/26 09:55:51;;;;;;;;;;;13.50;99.90;;;;;;5034347;28;19909;-75
2021/08/26 09:58:19;;;;;;;;;;;13.60;99.90;;;;;;5034523;28;19945;-75
2021/08/26 10:00:46;;;;;;;;;;;13.50;99.90;;;;;;5035146;28;20000;-74
2021/08/26 10:03:16;;;;;;;;;;;13.50;99.90;;;;;;5035008;28;19953;-75
2021/08/26 10:05:44;;;;;;;;;;;13.50;99.90;;;;;;5034487;28;19922;-75
2021/08/26 10:08:12;;;;;;;;;;;13.50;99.90;;;;;;5035005;28;19913;-75
2021/08/26 10:10:42;;;;;;;;;;;13.50;99.90;;;;;;5035661;28;19910;-75
2021/08/26 10:13:12;;;;;;;;;;;13.40;99.90;;;;;;5034390;28;19910;-75
2021/08/26 10:15:39;;;;;;;;;;;13.40;99.90;;;;;;5034101;28;19911;-75
2021/08/26 10:18:06;;;;;;;;;;;13.40;99.90;;;;;;5034076;28;19910;-75
2021/08/26 10:20:34;;;;;;;;;;;13.40;99.90;;;;;;5034608;28;19918;-75
2021/08/26 10:23:01;;;;;;;;;;;13.40;99.90;;;;;;5036753;28;19909;-76
2021/08/26 10:25:28;;;;;;;;;;;13.40;99.90;;;;;;5033526;28;20367;-75
2021/08/26 10:27:57;;;;;;;;;;;13.40;99.90;;;;;;5035011;28;19988;-75
2021/08/26 10:30:28;;;;;;;;;;;13.40;99.90;;;;;;5034129;28;20020;-76
2021/08/26 10:33:05;;;;;;;;;;;13.40;99.90;;;;;;5033984;28;19916;-75
2021/08/26 10:35:32;;;;;;;;;;;13.40;99.90;;;;;;5033739;28;19909;-76
2021/08/26 10:37:58;;;;;;;;;;;13.40;99.90;;;;;;5032508;28;19909;-75
2021/08/26 10:40:41;;;;;;;;;;;13.40;99.90;;;;;;5033743;28;19909;-75
2021/08/26 10:43:27;;;;;;;;;;;13.40;99.90;;;;;;5032546;28;19936;-75
2021/08/26 10:45:54;;;;;;;;;;;13.30;99.90;;;;;;5033171;28;19917;-74
2021/08/26 10:48:22;;;;;;;;;;;13.30;99.90;;;;;;5033278;28;19921;-74
2021/08/26 10:51:08;;;;;;;;;;;13.30;99.90;;;;;;5033347;28;19909;-75
2021/08/26 10:53:40;;;;;;;;;;;13.30;99.90;;;;;;5032981;28;20346;-75
2021/08/26 10:56:17;;;;;;;;;;;13.20;99.90;;;;;;5033355;28;19909;-75
2021/08/26 10:58:45;;;;;;;;;;;13.20;99.90;;;;;;5032473;28;19944;-74
2021/08/26 11:01:15;;;;;;;;;;;13.20;99.90;;;;;;5032450;28;20348;-74
2021/08/26 11:03:45;;;;;;;;;;;13.20;99.90;;;;;;5032787;28;20003;-74
2021/08/26 11:06:14;;;;;;;;;;;13.20;99.90;;;;;;5032807;28;19986;-75
2021/08/26 11:08:43;;;;;;;;;;;13.20;99.90;;;;;;5033015;28;19948;-75
2021/08/26 11:11:30;;;;;;;;;;;13.20;99.90;;;;;;5032976;28;19909;-75
2021/08/26 11:14:02;;;;;;;;;;;13.20;99.90;;;;;;5031836;28;19909;-74
2021/08/26 11:16:29;;;;;;;;;;;13.20;99.90;;;;;;5035117;28;19909;-75
2021/08/26 11:18:57;;;;;;;;;;;13.10;99.90;;;;;;5035392;28;20318;-75
2021/08/26 11:21:45;;;;;;;;;;;13.10;99.90;;;;;;5034306;28;20035;-75
2021/08/26 11:24:22;;;;;;;;;;;13.10;99.90;;;;;;5034698;28;19996;-75
2021/08/26 11:26:49;;;;;;;;;;;13.00;99.90;;;;;;5033875;28;20337;-74
2021/08/26 11:29:19;;;;;;;;;;;13.00;99.90;;;;;;5033124;28;20287;-74
2021/08/26 11:32:00;;;;;;;;;;;13.00;99.90;;;;;;5032752;28;19955;-74
2021/08/26 11:34:32;;;;;;;;;;;13.00;99.90;;;;;;5033276;28;19967;-74
2021/08/26 11:37:06;;;;;;;;;;;13.00;99.90;;;;;;5033453;28;20376;-75
2021/08/26 11:39:35;;;;;;;;;;;13.00;99.90;;;;;;5032981;28;19909;-74
2021/08/26 11:42:06;;;;;;;;;;;13.00;99.90;;;;;;5034075;28;19916;-75
2021/08/26 11:44:33;;;;;;;;;;;13.00;99.90;;;;;;5033123;28;19913;-75
2021/08/26 11:47:00;;;;;;;;;;;13.00;99.90;;;;;;5032981;28;20332;-76
2021/08/26 11:49:34;;;;;;;;;;;13.00;99.90;;;;;;5032779;28;20383;-76
2021/08/26 11:52:18;;;;;;;;;;;13.00;99.90;;;;;;5033085;28;19910;-75
2021/08/26 11:54:46;;;;;;;;;;;13.00;99.90;;;;;;5033550;28;19909;-75
2021/08/26 11:57:14;;;;;;;;;;;13.00;99.90;;;;;;5033188;28;19913;-75
2021/08/26 11:59:42;;;;;;;;;;;12.90;99.90;;;;;;5032716;28;19917;-75
2021/08/26 12:02:16;;;;;;;;;;;12.90;99.90;;;;;;5032920;28;19909;-76
2021/08/26 12:04:53;;;;;;;;;;;12.90;99.90;;;;;;5033071;28;19917;-76
2021/08/26 12:07:29;;;;;;;;;;;12.90;99.90;;;;;;5032952;28;19917;-75
2021/08/26 12:09:57;;;;;;;;;;;12.80;99.90;;;;;;5033077;28;19917;-76
2021/08/26 12:12:27;;;;;;;;;;;12.80;99.90;;;;;;5034618;28;19909;-75
2021/08/26 12:14:53;;;;;;;;;;;12.70;99.90;;;;;;5054161;28;19901;-75
2021/08/26 12:17:21;;;;;;;;;;;12.70;99.90;;;;;;5059986;28;19909;-75
2021/08/26 12:19:48;;;;;;;;;;;12.70;99.90;;;;;;5059721;28;19893;-75
2021/08/26 12:22:16;;;;;;;;;;;12.70;99.90;;;;;;5057639;28;19909;-74
2021/08/26 12:24:51;;;;;;;;;;;12.70;99.90;;;;;;5041258;28;19921;-75
2021/08/26 12:27:18;;;;;;;;;;;12.60;99.90;;;;;;5036109;28;19999;-74
2021/08/26 12:29:47;;;;;;;;;;;12.60;99.90;;;;;;5036735;28;19909;-74
2021/08/26 12:32:32;;;;;;;;;;;12.60;99.90;;;;;;5036821;28;19921;-75
2021/08/26 12:35:18;;;;;;;;;;;12.60;99.90;;;;;;5036409;28;19913;-74
2021/08/26 12:38:02;;;;;;;;;;;12.60;99.90;;;;;;5036376;28;19985;-74
2021/08/26 12:40:32;;;;;;;;;;;12.60;99.90;;;;;;5036512;28;19962;-74
2021/08/26 12:42:59;;;;;;;;;;;12.60;99.90;;;;;;5034524;28;20363;-74
2021/08/26 12:45:26;;;;;;;;;;;12.60;99.90;;;;;;5036298;28;19972;-75
2021/08/26 12:47:53;;;;;;;;;;;12.60;99.90;;;;;;5035904;28;19944;-74
2021/08/26 12:50:33;;;;;;;;;;;12.50;99.90;;;;;;5036049;28;19913;-75
2021/08/26 12:53:00;;;;;;;;;;;12.50;99.90;;;;;;5036210;28;20407;-75
2021/08/26 12:55:27;;;;;;;;;;;12.50;99.90;;;;;;5036177;28;19945;-74
2021/08/26 12:58:12;;;;;;;;;;;12.50;99.90;;;;;;5036318;28;19909;-75
2021/08/26 13:00:40;;;;;;;;;;;12.50;99.90;;;;;;5036127;28;19909;-75
2021/08/26 13:03:06;;;;;;;;;;;12.60;99.90;;;;;;5035633;28;19909;-75
2021/08/26 13:05:50;;;;;;;;;;;12.60;99.90;;;;;;5035752;28;19960;-75
2021/08/26 13:08:17;;;;;;;;;;;12.60;99.90;;;;;;5036029;28;20356;-76
2021/08/26 13:10:46;;;;;;;;;;;12.60;99.90;;;;;;5036222;28;19955;-76
2021/08/26 13:13:16;;;;;;;;;;;12.60;99.90;;;;;;5036172;28;19913;-75
2021/08/26 13:15:44;;;;;;;;;;;12.60;99.90;;;;;;5036100;28;19909;-76
2021/08/26 13:18:11;;;;;;;;;;;12.50;99.90;;;;;;5036180;28;19909;-75
2021/08/26 13:20:41;;;;;;;;;;;12.50;99.90;;;;;;5036604;28;19909;-75
2021/08/26 13:23:08;;;;;;;;;;;12.50;99.90;;;;;;5035410;28;19987;-75
2021/08/26 13:25:36;;;;;;;;;;;12.50;99.90;;;;;;5035276;28;20371;-76
2021/08/26 13:28:03;;;;;;;;;;;12.50;99.90;;;;;;5036158;28;19909;-76
2021/08/26 13:30:30;;;;;;;;;;;12.50;99.90;;;;;;5034211;28;19909;-75
2021/08/26 13:32:57;;;;;;;;;;;12.40;99.90;;;;;;5035246;28;19931;-76
2021/08/26 13:35:24;;;;;;;;;;;12.40;99.90;;;;;;5035306;28;19909;-76
2021/08/26 13:37:50;;;;;;;;;;;12.40;99.90;;;;;;5035181;28;20395;-75
2021/08/26 13:40:18;;;;;;;;;;;12.40;99.90;;;;;;5034940;28;19962;-75
2021/08/26 13:42:45;;;;;;;;;;;12.40;99.90;;;;;;5035389;28;19981;-76
2021/08/26 13:45:12;;;;;;;;;;;12.40;99.90;;;;;;5034992;28;20283;-75
2021/08/26 13:47:40;;;;;;;;;;;12.40;99.90;;;;;;5033405;28;19952;-76
2021/08/26 13:50:09;;;;;;;;;;;12.30;99.90;;;;;;5037800;28;19917;-76
2021/08/26 13:52:36;;;;;;;;;;;12.30;99.90;;;;;;5056330;28;20026;-76
2021/08/26 13:55:02;;;;;;;;;;;12.30;99.90;;;;;;5059995;28;19920;-77
2021/08/26 13:57:31;;;;;;;;;;;12.30;99.90;;;;;;5058697;28;19921;-76
2021/08/26 13:59:58;;;;;;;;;;;12.30;99.90;;;;;;5037045;28;19909;-75
2021/08/26 14:02:24;;;;;;;;;;;12.20;99.90;;;;;;5035053;28;19935;-76
2021/08/26 14:04:52;;;;;;;;;;;12.20;99.90;;;;;;5034893;28;19916;-76
2021/08/26 14:07:19;;;;;;;;;;;12.20;99.90;;;;;;5034830;28;20363;-76
2021/08/26 14:09:47;;;;;;;;;;;12.20;99.90;;;;;;5034666;28;19917;-75
2021/08/26 14:12:13;;;;;;;;;;;12.20;99.90;;;;;;5034612;28;19940;-75
2021/08/26 14:14:40;;;;;;;;;;;12.20;99.90;;;;;;5034489;28;19913;-75
2021/08/26 14:17:07;;;;;;;;;;;12.20;99.90;;;;;;5034713;28;19909;-75
2021/08/26 14:19:33;;;;;;;;;;;12.20;99.90;;;;;;5034175;28;19920;-76
2021/08/26 14:22:00;;;;;;;;;;;12.20;99.90;;;;;;5034252;28;19909;-75
2021/08/26 14:24:27;;;;;;;;;;;12.10;99.90;;;;;;5034312;28;19917;-75
2021/08/26 14:26:53;;;;;;;;;;;12.20;99.90;;;;;;5034425;28;19921;-75
2021/08/26 14:29:20;;;;;;;;;;;12.10;99.90;;;;;;5034293;28;19916;-76